LICR/REG METAR and TAF weather

Enter ICAO airport designator
Station Type Date Time Source
LICR METAR 2024/05/28 23:50 UTC NOAA

LICR 282350Z AUTO 05005KT 9999 NCD 18/06 Q1014


Station Type Date Time Source
LICR Decoded METAR 2024/05/28 23:50 UTC NOAA

Reggio Calabria, Italy (LICR) 38-04N 015-39E 21M
May 28, 2024 - 07:50 PM EDT / 2024.05.28 2350 UTC
Wind: from the NE (050 degrees) at 6 MPH (5 KT):0
Visibility: greater than 7 mile(s):0
Temperature: 64 F (18 C)
Dew Point: 42 F (6 C)
Relative Humidity: 45%
Pressure (altimeter): 29.94 in. Hg (1014 hPa)
ob: LICR 282350Z AUTO 05005KT 9999 NCD 18/06 Q1014
cycle: 0

Station Type Date Time Source
LICR TAF 2024/05/28 18:21 UTC NOAA